Time;durP1;ratioP1;P1;durP2;ratioP2;P2;SDS_P1;SDS_P2;PMS_P1;PMS_P2;Temp;Humidity;BMP_temperature;BMP_pressure;BME280_temperature;BME280_humidity;BME280_pressure;Samples;Min_cycle;Max_cycle;Signal;HPM_P1;HPM_P2
2022/12/22 03:30:53;;;;;;;11.60;5.88;;;9.50;99.90;;;;;;10483543;28;20029;-62
2022/12/22 03:35:53;;;;;;;9.63;5.53;;;9.50;99.90;;;;;;10476279;28;20127;-62
2022/12/22 03:40:54;;;;;;;11.20;5.43;;;9.50;99.90;;;;;;10466247;28;20108;-62
2022/12/22 03:51:14;;;;;;;10.27;6.00;;;9.50;99.90;;;;;;10492583;28;20522;-64
2022/12/22 03:56:15;;;;;;;13.38;6.25;;;9.50;99.90;;;;;;10477336;28;20024;-62
2022/12/22 04:01:16;;;;;;;10.07;5.35;;;9.50;99.90;;;;;;10490261;28;20056;-62
2022/12/22 04:06:17;;;;;;;11.60;5.45;;;9.50;99.90;;;;;;10474344;28;20017;-75
2022/12/22 04:16:37;;;;;;;8.77;5.18;;;9.50;99.90;;;;;;10458661;28;20036;-62
2022/12/22 04:21:38;;;;;;;10.75;5.70;;;9.50;99.90;;;;;;10483966;28;20480;-62
2022/12/22 04:26:39;;;;;;;10.30;6.40;;;9.50;99.90;;;;;;10480509;28;20099;-62
2022/12/22 04:31:39;;;;;;;9.63;5.30;;;9.50;99.90;;;;;;10479913;28;20077;-62
2022/12/22 04:36:40;;;;;;;10.52;5.60;;;9.50;99.90;;;;;;10471740;28;20349;-62
2022/12/22 04:41:40;;;;;;;10.18;5.32;;;9.50;99.90;;;;;;10470029;28;20028;-61
2022/12/22 04:46:41;;;;;;;10.07;6.00;;;9.50;99.90;;;;;;10477093;28;20154;-62
2022/12/22 04:51:42;;;;;;;7.93;4.90;;;9.50;99.90;;;;;;10475495;28;20033;-63
2022/12/22 04:56:42;;;;;;;9.77;5.45;;;9.50;99.90;;;;;;10475817;28;20383;-62
2022/12/22 05:01:43;;;;;;;10.40;5.35;;;9.50;99.90;;;;;;10472324;28;20028;-62
2022/12/22 05:06:44;;;;;;;8.23;4.97;;;9.50;99.90;;;;;;10475752;28;20036;-64
2022/12/22 05:11:44;;;;;;;9.65;5.20;;;9.50;99.90;;;;;;10460217;28;20203;-63
2022/12/22 05:16:45;;;;;;;9.05;5.43;;;9.50;99.90;;;;;;10483051;28;20025;-68
2022/12/22 05:21:45;;;;;;;8.73;4.45;;;9.50;99.90;;;;;;10487390;28;20384;-62
2022/12/22 05:26:46;;;;;;;8.75;4.80;;;9.50;99.90;;;;;;10470107;28;20023;-62
2022/12/22 05:31:46;;;;;;;8.75;5.13;;;9.50;99.90;;;;;;10473055;28;20050;-64
2022/12/22 05:36:47;;;;;;;9.88;5.40;;;9.50;99.90;;;;;;10473559;28;20415;-61
2022/12/22 05:41:48;;;;;;;11.15;5.80;;;9.60;99.90;;;;;;10501527;28;20384;-62
2022/12/22 05:46:51;;;;;;;9.60;5.55;;;9.60;99.90;;;;;;10485818;28;20026;-62
2022/12/22 05:51:54;;;;;;;8.88;5.43;;;9.60;99.90;;;;;;10489009;28;20548;-64
2022/12/22 05:56:55;;;;;;;13.70;6.47;;;9.60;99.90;;;;;;10470995;28;20063;-64
2022/12/22 06:01:55;;;;;;;14.40;6.57;;;9.60;99.90;;;;;;10474598;28;20048;-64
2022/12/22 06:06:56;;;;;;;13.00;6.70;;;9.60;99.90;;;;;;10466314;28;20020;-66
2022/12/22 06:11:56;;;;;;;13.10;6.22;;;9.60;99.90;;;;;;10483207;28;20033;-64
2022/12/22 06:16:57;;;;;;;12.68;5.90;;;9.60;99.90;;;;;;10475054;28;20028;-65
2022/12/22 06:21:58;;;;;;;12.68;5.90;;;9.60;99.90;;;;;;10474998;28;20098;-63
2022/12/22 06:26:58;;;;;;;12.55;6.00;;;9.60;99.90;;;;;;10481451;28;20114;-65
2022/12/22 06:31:59;;;;;;;11.50;5.93;;;9.50;99.90;;;;;;10470526;28;20032;-64
2022/12/22 06:36:59;;;;;;;10.38;5.75;;;9.60;99.90;;;;;;10476392;28;20036;-64
2022/12/22 06:47:20;;;;;;;11.80;5.40;;;9.60;99.90;;;;;;10479138;28;20017;-64
2022/12/22 06:52:20;;;;;;;12.50;6.15;;;9.50;99.90;;;;;;10466080;28;20497;-69
2022/12/22 06:57:21;;;;;;;10.98;5.72;;;9.50;99.90;;;;;;10465941;28;20025;-64
2022/12/22 07:02:22;;;;;;;13.32;6.15;;;9.50;99.90;;;;;;10464727;28;20382;-64
2022/12/22 07:07:22;;;;;;;11.68;5.82;;;9.50;99.90;;;;;;10481093;28;20562;-65
2022/12/22 07:12:23;;;;;;;10.65;5.55;;;9.50;99.90;;;;;;10465991;28;20410;-64
2022/12/22 07:17:24;;;;;;;10.90;5.60;;;9.50;99.90;;;;;;10484600;28;20014;-62
2022/12/22 07:22:24;;;;;;;10.80;5.53;;;9.50;99.90;;;;;;10484162;28;20436;-63
2022/12/22 07:27:25;;;;;;;12.60;5.57;;;9.60;99.90;;;;;;10473953;28;20380;-63
2022/12/22 07:32:26;;;;;;;8.68;5.20;;;9.50;99.90;;;;;;10485066;28;20025;-71
2022/12/22 07:37:26;;;;;;;10.50;5.15;;;9.50;99.90;;;;;;10473384;28;20512;-65
2022/12/22 07:42:45;;;;;;;12.93;5.85;;;9.50;99.90;;;;;;10481550;28;20027;-66
2022/12/22 07:47:46;;;;;;;10.85;5.18;;;9.50;99.90;;;;;;10483631;28;20093;-64
2022/12/22 07:52:47;;;;;;;12.30;5.80;;;9.50;99.90;;;;;;10473127;28;20028;-64
2022/12/22 07:57:47;;;;;;;12.68;5.82;;;9.40;99.90;;;;;;10483310;28;20028;-64
2022/12/22 08:02:52;;;;;;;9.25;5.32;;;9.40;99.90;;;;;;10482032;28;20025;-62
2022/12/22 08:07:53;;;;;;;10.82;4.90;;;9.40;99.90;;;;;;10482971;28;20082;-67
2022/12/22 08:12:54;;;;;;;10.57;5.00;;;9.40;99.90;;;;;;10487226;28;20086;-63
2022/12/22 08:17:55;;;;;;;11.25;5.07;;;9.50;99.90;;;;;;10481027;28;20033;-63
2022/12/22 08:22:56;;;;;;;10.95;5.00;;;9.40;99.90;;;;;;10481681;28;20044;-64
2022/12/22 08:27:57;;;;;;;11.82;5.13;;;9.40;99.90;;;;;;10469141;28;20029;-63
2022/12/22 08:32:58;;;;;;;11.23;5.40;;;9.40;99.90;;;;;;10451333;28;20441;-63
2022/12/22 08:37:59;;;;;;;11.95;5.13;;;9.40;99.90;;;;;;10484304;28;20115;-63
2022/12/22 08:43:06;;;;;;;9.82;4.60;;;9.40;99.90;;;;;;10482279;28;20086;-63
2022/12/22 08:48:07;;;;;;;8.70;4.13;;;9.40;99.90;;;;;;10483542;28;20477;-64
2022/12/22 08:53:08;;;;;;;9.77;4.72;;;9.40;99.90;;;;;;10487870;28;20044;-63
2022/12/22 08:58:09;;;;;;;9.35;4.85;;;9.40;99.90;;;;;;10487574;28;20036;-63
2022/12/22 09:03:10;;;;;;;9.02;4.55;;;9.40;99.90;;;;;;10486256;28;20052;-63
2022/12/22 09:08:10;;;;;;;9.95;4.38;;;9.40;99.90;;;;;;10488252;28;20019;-63
2022/12/22 09:13:11;;;;;;;7.55;3.92;;;9.40;99.90;;;;;;10477487;28;20067;-63
2022/12/22 09:18:11;;;;;;;9.02;4.28;;;9.40;99.90;;;;;;10466017;28;20156;-63
2022/12/22 09:23:12;;;;;;;8.68;4.55;;;9.40;99.90;;;;;;10479496;28;20032;-62
2022/12/22 09:28:13;;;;;;;10.38;4.53;;;9.40;99.90;;;;;;10483013;28;20008;-63
2022/12/22 09:33:13;;;;;;;10.00;4.57;;;9.40;99.90;;;;;;10471025;28;20068;-63
2022/12/22 09:38:14;;;;;;;8.30;4.20;;;9.40;99.90;;;;;;10488026;28;20013;-63
2022/12/22 09:43:17;;;;;;;10.80;4.30;;;9.40;99.90;;;;;;10484224;28;20031;-63
2022/12/22 09:48:18;;;;;;;9.52;4.18;;;9.30;99.90;;;;;;10484428;28;20017;-63
2022/12/22 09:53:22;;;;;;;8.88;4.30;;;9.40;99.90;;;;;;10476743;28;20029;-63
2022/12/22 09:58:29;;;;;;;10.77;4.05;;;9.30;99.90;;;;;;10482178;28;20021;-64
2022/12/22 10:03:49;;;;;;;9.15;4.05;;;9.40;99.90;;;;;;10477360;28;20094;-63
2022/12/22 10:08:52;;;;;;;8.20;3.90;;;9.40;99.90;;;;;;10485682;28;20027;-63
2022/12/22 10:13:53;;;;;;;7.30;3.58;;;9.40;99.90;;;;;;10484313;28;20029;-63
2022/12/22 10:19:10;;;;;;;8.40;3.90;;;9.40;99.90;;;;;;10485520;28;20548;-63
2022/12/22 10:24:34;;;;;;;8.13;3.60;;;9.40;99.90;;;;;;10485079;28;20044;-63
2022/12/22 10:29:35;;;;;;;7.97;3.80;;;9.40;99.90;;;;;;10486491;28;20024;-63
2022/12/22 10:34:35;;;;;;;7.20;3.75;;;9.40;99.90;;;;;;10478762;28;20032;-64
2022/12/22 10:39:37;;;;;;;8.65;3.92;;;9.40;99.90;;;;;;10482830;28;20012;-63
2022/12/22 10:44:42;;;;;;;6.50;3.20;;;9.40;99.90;;;;;;10478195;28;20027;-64
2022/12/22 10:49:50;;;;;;;5.10;2.45;;;9.40;99.90;;;;;;10483668;28;20043;-61
2022/12/22 10:54:50;;;;;;;7.45;2.90;;;9.50;99.90;;;;;;10486318;28;20047;-62
2022/12/22 10:59:53;;;;;;;7.28;3.50;;;9.50;99.90;;;;;;10480416;28;20024;-63
2022/12/22 11:05:01;;;;;;;7.20;3.10;;;9.50;99.90;;;;;;10492617;28;20037;-63
2022/12/22 11:10:18;;;;;;;6.43;2.97;;;9.50;99.90;;;;;;10482810;28;20031;-62
2022/12/22 11:15:21;;;;;;;6.75;3.25;;;9.60;99.90;;;;;;10483105;28;20048;-62
2022/12/22 11:20:37;;;;;;;7.03;2.88;;;9.60;99.90;;;;;;10485368;28;20024;-63
2022/12/22 11:25:44;;;;;;;7.15;3.40;;;9.60;99.90;;;;;;10488787;28;20024;-63
2022/12/22 11:31:14;;;;;;;7.38;2.90;;;9.60;99.90;;;;;;10481459;28;20418;-63
2022/12/22 11:36:40;;;;;;;5.57;2.70;;;9.70;99.90;;;;;;10488638;28;20033;-63
2022/12/22 11:42:11;;;;;;;5.07;2.80;;;9.70;99.90;;;;;;10490657;28;20008;-62
2022/12/22 11:47:29;;;;;;;5.70;2.85;;;9.70;99.90;;;;;;10489105;28;20033;-63
2022/12/22 11:52:57;;;;;;;4.88;3.00;;;9.70;99.90;;;;;;10491160;28;20390;-63
2022/12/22 11:58:22;;;;;;;7.95;3.10;;;9.70;99.90;;;;;;10477020;28;20473;-63
2022/12/22 12:03:41;;;;;;;7.70;3.15;;;9.70;99.90;;;;;;10487449;28;20020;-62
2022/12/22 12:09:06;;;;;;;5.45;2.88;;;9.80;99.90;;;;;;10479580;28;20347;-63
2022/12/22 12:14:26;;;;;;;6.47;3.30;;;9.70;99.90;;;;;;10488649;28;20107;-62
2022/12/22 12:19:42;;;;;;;5.85;2.95;;;9.80;99.90;;;;;;10480132;28;20270;-62
2022/12/22 12:25:00;;;;;;;5.20;2.92;;;9.80;99.90;;;;;;10485328;28;20055;-62
2022/12/22 12:30:17;;;;;;;6.68;3.13;;;9.80;99.90;;;;;;10482336;28;20431;-63
2022/12/22 12:35:40;;;;;;;5.75;2.72;;;9.80;99.90;;;;;;10484205;28;20530;-62
2022/12/22 12:41:01;;;;;;;5.57;2.85;;;9.80;99.90;;;;;;10481657;28;20479;-62
2022/12/22 12:46:43;;;;;;;5.47;2.78;;;9.80;99.90;;;;;;10483021;28;20020;-63
2022/12/22 12:51:48;;;;;;;7.40;3.22;;;9.80;99.90;;;;;;10486025;28;20024;-62
2022/12/22 12:57:00;;;;;;;6.97;3.00;;;9.80;99.90;;;;;;10483611;28;20495;-63
2022/12/22 13:02:00;;;;;;;6.30;2.88;;;9.80;99.90;;;;;;10482024;28;20024;-63
2022/12/22 13:07:01;;;;;;;7.97;2.90;;;9.90;99.90;;;;;;10486962;28;20033;-62
2022/12/22 13:12:39;;;;;;;5.35;2.75;;;9.80;99.90;;;;;;10482124;28;20044;-62
2022/12/22 13:17:48;;;;;;;6.43;2.83;;;9.80;99.90;;;;;;10486661;28;20178;-62
2022/12/22 13:22:53;;;;;;;5.00;2.43;;;9.80;99.90;;;;;;10484536;28;20551;-62
2022/12/22 13:27:56;;;;;;;17.38;3.08;;;9.80;99.90;;;;;;10480897;28;20336;-62
2022/12/22 13:33:00;;;;;;;13.48;3.65;;;9.90;99.90;;;;;;10477372;28;20492;-63
2022/12/22 13:38:02;;;;;;;12.27;4.15;;;9.80;99.90;;;;;;10485519;28;20044;-62
2022/12/22 13:43:08;;;;;;;8.50;3.05;;;9.80;99.90;;;;;;10481292;28;20083;-63
2022/12/22 13:48:18;;;;;;;7.70;3.13;;;9.80;99.90;;;;;;10482278;28;20131;-62
2022/12/22 13:53:49;;;;;;;8.02;3.03;;;9.80;99.90;;;;;;10485260;28;20029;-62
2022/12/22 13:59:00;;;;;;;7.40;3.00;;;9.80;99.90;;;;;;10469042;28;20088;-63
2022/12/22 14:04:06;;;;;;;8.23;3.08;;;9.80;99.90;;;;;;10472761;28;20055;-62
2022/12/22 14:09:12;;;;;;;9.32;2.40;;;9.80;99.90;;;;;;10472114;28;20132;-62
2022/12/22 14:14:18;;;;;;;7.07;2.47;;;9.70;99.90;;;;;;10481520;28;20087;-63
2022/12/22 14:19:21;;;;;;;8.38;3.47;;;9.70;99.90;;;;;;10482036;28;20017;-62
2022/12/22 14:24:26;;;;;;;5.25;2.58;;;9.70;99.90;;;;;;10481980;28;20108;-63
2022/12/22 14:29:28;;;;;;;5.70;2.50;;;9.70;99.90;;;;;;10477731;28;20473;-63
2022/12/22 14:34:33;;;;;;;10.38;2.72;;;9.70;99.90;;;;;;10475345;28;20127;-61
2022/12/22 14:39:34;;;;;;;6.57;2.63;;;9.70;99.90;;;;;;10477853;28;20029;-62
2022/12/22 14:44:42;;;;;;;6.88;2.35;;;9.70;99.90;;;;;;10481368;28;20028;-62
2022/12/22 14:49:52;;;;;;;6.77;2.70;;;9.60;99.90;;;;;;10483671;28;20017;-63
2022/12/22 14:54:54;;;;;;;6.88;2.55;;;9.60;99.90;;;;;;10471545;28;20114;-61
2022/12/22 15:00:08;;;;;;;4.72;2.20;;;9.60;99.90;;;;;;10482302;28;20114;-61
2022/12/22 15:05:28;;;;;;;5.82;2.10;;;9.60;99.90;;;;;;10477723;28;20123;-61
2022/12/22 15:10:39;;;;;;;4.13;2.58;;;9.60;99.90;;;;;;10480740;28;20019;-61
2022/12/22 15:15:40;;;;;;;4.15;2.10;;;9.60;99.90;;;;;;10479102;28;20020;-61
2022/12/22 15:20:41;;;;;;;4.05;2.05;;;9.60;99.90;;;;;;10478246;28;20021;-61
2022/12/22 15:25:41;;;;;;;4.82;2.15;;;9.60;99.90;;;;;;10475951;28;20028;-62
2022/12/22 15:30:42;;;;;;;3.42;1.85;;;9.60;99.90;;;;;;10475217;28;20035;-62
2022/12/22 15:35:44;;;;;;;5.10;2.22;;;9.60;99.90;;;;;;10477183;28;20043;-61
2022/12/22 15:40:48;;;;;;;3.05;1.85;;;9.50;99.90;;;;;;10473793;28;20012;-62
2022/12/22 15:45:49;;;;;;;6.68;1.92;;;9.50;99.90;;;;;;10483969;28;20493;-62
2022/12/22 15:50:50;;;;;;;4.53;2.30;;;9.50;99.90;;;;;;10483762;28;20020;-65
2022/12/22 15:55:54;;;;;;;4.90;1.98;;;9.50;99.90;;;;;;10475449;28;20114;-63
2022/12/22 16:00:54;;;;;;;5.53;2.10;;;9.50;99.90;;;;;;10482982;28;20021;-64
2022/12/22 16:05:55;;;;;;;4.18;2.05;;;9.50;99.90;;;;;;10483609;28;20126;-63
2022/12/22 16:10:56;;;;;;;5.55;2.30;;;9.50;99.90;;;;;;10476680;28;20016;-63
2022/12/22 16:15:57;;;;;;;4.68;2.38;;;9.50;99.90;;;;;;10476286;28;20391;-62
2022/12/22 16:21:12;;;;;;;7.57;2.38;;;9.40;99.90;;;;;;10484418;28;20029;-62
2022/12/22 16:26:19;;;;;;;5.93;2.88;;;9.50;99.90;;;;;;10481991;28;20113;-63
2022/12/22 16:31:22;;;;;;;6.57;3.33;;;9.50;99.90;;;;;;10481336;28;20094;-62
2022/12/22 16:36:23;;;;;;;7.05;2.92;;;9.60;99.90;;;;;;10486725;28;20472;-62
2022/12/22 16:41:24;;;;;;;5.35;3.28;;;9.50;99.90;;;;;;10483740;28;20058;-62
2022/12/22 16:46:25;;;;;;;5.50;3.17;;;9.50;99.90;;;;;;10484105;28;20333;-63
2022/12/22 16:51:32;;;;;;;8.65;2.83;;;9.50;99.90;;;;;;10483549;28;20404;-62
2022/12/22 16:56:33;;;;;;;5.20;2.47;;;9.40;99.90;;;;;;10484649;28;20047;-62
2022/12/22 17:01:39;;;;;;;4.53;2.72;;;9.40;99.90;;;;;;10483927;28;20099;-61
2022/12/22 17:06:41;;;;;;;5.32;2.88;;;9.40;99.90;;;;;;10482441;28;20012;-61
2022/12/22 17:11:44;;;;;;;8.80;3.85;;;9.40;99.90;;;;;;10483387;28;20381;-61
2022/12/22 17:16:45;;;;;;;7.72;3.78;;;9.40;99.90;;;;;;10471578;28;20101;-63
2022/12/22 17:21:46;;;;;;;8.48;4.25;;;9.40;99.90;;;;;;10485840;28;20569;-63
2022/12/22 17:26:47;;;;;;;8.55;4.00;;;9.50;99.90;;;;;;10481487;28;20078;-62
2022/12/22 17:31:48;;;;;;;8.27;3.30;;;9.40;99.90;;;;;;10476887;28;20098;-62
2022/12/22 17:36:49;;;;;;;8.85;3.78;;;9.40;99.90;;;;;;10478067;28;20028;-62
2022/12/22 17:41:50;;;;;;;13.63;5.22;;;9.40;99.90;;;;;;10476269;28;20103;-63
2022/12/22 17:46:51;;;;;;;15.13;5.45;;;9.40;99.90;;;;;;10478279;28;20458;-62
2022/12/22 17:51:51;;;;;;;23.40;5.93;;;9.40;99.90;;;;;;10472334;28;20089;-62
2022/12/22 17:56:58;;;;;;;12.43;5.70;;;9.40;99.90;;;;;;10482912;28;20043;-62
2022/12/22 18:02:00;;;;;;;15.68;6.43;;;9.40;99.90;;;;;;10475557;28;20024;-62
2022/12/22 18:07:00;;;;;;;16.40;6.57;;;9.40;99.90;;;;;;10474834;28;20122;-62
2022/12/22 18:12:02;;;;;;;16.42;6.50;;;9.40;99.90;;;;;;10479857;28;20488;-62
2022/12/22 18:17:03;;;;;;;15.23;6.55;;;9.40;99.90;;;;;;10479215;28;20050;-62
2022/12/22 18:22:03;;;;;;;17.42;7.38;;;9.40;99.90;;;;;;10476096;28;20024;-61
2022/12/22 18:27:04;;;;;;;16.35;6.80;;;9.40;99.90;;;;;;10479603;28;20491;-62
2022/12/22 18:32:06;;;;;;;16.55;6.72;;;9.40;99.90;;;;;;10481984;28;22373;-62
2022/12/22 18:37:14;;;;;;;15.80;7.15;;;9.50;99.90;;;;;;10476306;28;20025;-62
2022/12/22 18:42:20;;;;;;;18.85;8.43;;;9.40;99.90;;;;;;10478299;28;20018;-62
2022/12/22 18:47:21;;;;;;;17.08;7.55;;;9.40;99.90;;;;;;10482164;28;20146;-64
2022/12/22 18:52:23;;;;;;;20.00;8.52;;;9.40;99.90;;;;;;10480212;28;20025;-65
2022/12/22 18:57:24;;;;;;;19.48;8.38;;;9.50;99.90;;;;;;10452604;28;20619;-64
2022/12/22 19:02:27;;;;;;;18.15;7.63;;;9.50;99.90;;;;;;10474559;28;20101;-63
2022/12/22 19:07:28;;;;;;;19.60;8.40;;;9.50;99.90;;;;;;10467057;28;20787;-63
2022/12/22 19:12:28;;;;;;;19.17;8.48;;;9.40;99.90;;;;;;10466587;28;20037;-64
2022/12/22 19:17:29;;;;;;;17.55;7.75;;;9.40;99.90;;;;;;10476188;28;20021;-64
2022/12/22 19:22:30;;;;;;;16.67;7.15;;;9.40;99.90;;;;;;10487774;28;20036;-65
2022/12/22 19:27:31;;;;;;;18.42;7.68;;;9.40;99.90;;;;;;10501145;28;20495;-68
2022/12/22 19:32:40;;;;;;;17.00;7.78;;;9.40;99.90;;;;;;10484707;28;20036;-63
2022/12/22 19:37:41;;;;;;;17.52;7.72;;;9.40;99.90;;;;;;10492681;28;20372;-62
2022/12/22 19:42:44;;;;;;;16.35;7.68;;;9.40;99.90;;;;;;10495156;28;20191;-62
2022/12/22 19:47:45;;;;;;;21.38;8.50;;;9.40;99.90;;;;;;10487663;28;20020;-63
2022/12/22 19:52:46;;;;;;;20.55;8.55;;;9.40;99.90;;;;;;10486054;28;20036;-62
2022/12/22 19:57:50;;;;;;;18.70;8.10;;;9.40;99.90;;;;;;10487645;28;20017;-62
2022/12/22 20:02:53;;;;;;;18.58;8.27;;;9.40;99.90;;;;;;10483825;28;20029;-63
2022/12/22 20:07:56;;;;;;;19.67;8.30;;;9.40;99.90;;;;;;10486660;28;20122;-62
2022/12/22 20:13:00;;;;;;;21.20;8.98;;;9.40;99.90;;;;;;10483788;28;20594;-62
2022/12/22 20:18:10;;;;;;;23.23;9.45;;;9.40;99.90;;;;;;10484441;28;20480;-62
2022/12/22 20:23:17;;;;;;;19.80;8.68;;;9.40;99.90;;;;;;10484050;28;20033;-61
2022/12/22 20:28:30;;;;;;;18.13;7.68;;;9.40;99.90;;;;;;10468037;28;20017;-62
2022/12/22 20:33:31;;;;;;;15.50;7.47;;;9.40;99.90;;;;;;10484134;28;20496;-62
2022/12/22 20:38:42;;;;;;;16.33;7.70;;;9.40;99.90;;;;;;10487338;28;20075;-62
2022/12/22 20:43:44;;;;;;;16.27;7.68;;;9.90;99.90;;;;;;10483312;28;20021;-62
2022/12/22 20:49:14;;;;;;;19.13;8.07;;;9.40;99.90;;;;;;10478921;28;20040;-63
2022/12/22 20:54:15;;;;;;;18.58;8.35;;;9.40;99.90;;;;;;10478093;28;20455;-62
2022/12/22 20:59:21;;;;;;;17.08;8.35;;;9.40;99.90;;;;;;10485630;28;20012;-68
2022/12/22 21:04:22;;;;;;;17.13;7.63;;;9.40;99.90;;;;;;10481045;28;20523;-61
2022/12/22 21:09:23;;;;;;;17.58;7.88;;;9.40;99.90;;;;;;10482513;28;20135;-68
2022/12/22 21:14:23;;;;;;;17.27;8.25;;;9.40;99.90;;;;;;10461596;28;20163;-63
2022/12/22 21:19:24;;;;;;;17.63;7.25;;;9.40;99.90;;;;;;10479598;28;20482;-62
2022/12/22 21:24:25;;;;;;;15.38;7.13;;;9.40;99.90;;;;;;10486667;28;20028;-63
2022/12/22 21:29:26;;;;;;;17.63;7.68;;;9.40;99.90;;;;;;10482322;28;20040;-63
2022/12/22 21:34:26;;;;;;;16.73;7.07;;;9.40;99.90;;;;;;10478118;28;20081;-63
2022/12/22 21:39:38;;;;;;;18.67;8.07;;;9.40;99.90;;;;;;10478018;28;20012;-62
2022/12/22 21:44:38;;;;;;;15.73;7.72;;;9.40;99.90;;;;;;10471542;28;20028;-63
2022/12/22 21:49:39;;;;;;;14.13;7.53;;;9.40;99.90;;;;;;10473297;28;20017;-63
2022/12/22 21:54:39;;;;;;;15.10;7.18;;;9.40;99.90;;;;;;11974653;22;20056;-64
2022/12/22 21:59:40;;;;;;;15.88;7.75;;;9.40;99.90;;;;;;10437154;28;20017;-68
2022/12/22 22:04:40;;;;;;;16.20;7.65;;;9.50;99.90;;;;;;10455032;28;20044;-64
2022/12/22 22:09:41;;;;;;;15.27;7.50;;;9.40;99.90;;;;;;10445354;28;20422;-63
2022/12/22 22:14:42;;;;;;;16.30;7.68;;;9.40;99.90;;;;;;10437446;28;20076;-64
2022/12/22 22:19:42;;;;;;;15.65;6.80;;;9.40;99.90;;;;;;10434529;28;20084;-63
2022/12/22 22:24:43;;;;;;;13.20;6.05;;;9.40;99.90;;;;;;10446328;28;20593;-64
2022/12/22 22:29:43;;;;;;;13.90;6.65;;;9.40;99.90;;;;;;10433533;28;20063;-64
2022/12/22 22:34:44;;;;;;;12.43;5.90;;;9.40;99.90;;;;;;10435397;28;20071;-64
2022/12/22 22:39:44;;;;;;;13.68;6.45;;;9.40;99.90;;;;;;10418585;28;20014;-63
2022/12/22 22:44:45;;;;;;;16.42;6.93;;;9.40;99.90;;;;;;10433044;28;20112;-64
2022/12/22 22:49:46;;;;;;;15.23;6.57;;;9.40;99.90;;;;;;10433813;28;20013;-63
2022/12/22 22:54:46;;;;;;;15.45;6.85;;;9.40;99.90;;;;;;10449038;28;20330;-67
2022/12/22 22:59:47;;;;;;;13.27;6.38;;;9.50;99.90;;;;;;10460038;28;20017;-63
2022/12/22 23:04:48;;;;;;;11.70;6.47;;;9.50;99.90;;;;;;10448911;28;20017;-63
2022/12/22 23:09:49;;;;;;;12.18;6.28;;;9.40;99.90;;;;;;10435589;28;20013;-63
2022/12/22 23:14:49;;;;;;;12.45;6.20;;;9.40;99.90;;;;;;10438227;28;20032;-63
2022/12/22 23:19:50;;;;;;;12.15;5.78;;;9.50;99.90;;;;;;10436265;28;20017;-63
2022/12/22 23:24:50;;;;;;;11.48;5.97;;;9.50;99.90;;;;;;10437783;28;20041;-62
2022/12/22 23:29:51;;;;;;;12.23;5.95;;;9.50;99.90;;;;;;10437345;28;20348;-63
2022/12/22 23:34:51;;;;;;;12.30;6.18;;;9.50;99.90;;;;;;10426248;28;20033;-63
2022/12/22 23:39:52;;;;;;;11.60;5.88;;;9.50;99.90;;;;;;10424759;28;20040;-62
2022/12/22 23:44:52;;;;;;;11.73;5.72;;;9.50;99.90;;;;;;10416273;28;20025;-62
2022/12/22 23:49:53;;;;;;;12.90;5.60;;;9.50;99.90;;;;;;10434974;28;20028;-63
2022/12/22 23:54:54;;;;;;;11.10;5.30;;;9.50;99.90;;;;;;10432604;28;20033;-63
2022/12/22 23:59:54;;;;;;;11.60;5.40;;;9.50;99.90;;;;;;10437256;28;20032;-63
